This is the latest recevied weather packets stored in our database for station/object N0SWP-3. If no packets are shown the sender has not sent any weather packets the latest 10 day(s).
| Time | Temp. | Humidity | Pressure | Rain* | Wind** | Luminosity | Snow |
|---|---|---|---|---|---|---|---|
| 1778166363 | 15° C | 63% | 1017.4 hPa | 0 mm | - | - | - |
| 1778166137 | 15° C | 63% | 1017.5 hPa | 0 mm | - | - | - |
| 1778165103 | 14.44° C | 66% | 1017.6 hPa | 0 mm | - | - | - |
| 1778163483 | 13.33° C | 70% | 1017.6 hPa | 0 mm | - | - | - |
| 1778162583 | 12.22° C | 70% | 1017.7 hPa | 0 mm | - | - | - |
| 1778162223 | 12.22° C | 72% | 1017.8 hPa | 0 mm | - | - | - |
| 1778161683 | 12.22° C | 72% | 1017.8 hPa | 0 mm | - | - | - |
| 1778160737 | 11.11° C | 75% | 1017.9 hPa | 0 mm | - | - | - |
| 1778159523 | 9.44° C | 78% | 1018 hPa | 0 mm | - | - | - |
| 1778158443 | 8.33° C | 80% | 1018 hPa | 0 mm | - | - | - |
| 1778156823 | 6.67° C | 83% | 1018 hPa | 0 mm | - | - | - |
| 1778155023 | 5.56° C | 86% | 1017.9 hPa | 0 mm | - | - | - |
| 1778153223 | 5.56° C | 88% | 1017.7 hPa | 0 mm | - | - | - |
| 1778151963 | 5.56° C | 87% | 1017.5 hPa | 0 mm | - | - | - |
| 1778151423 | 5.56° C | 88% | 1017.5 hPa | 0 mm | - | - | - |
| 1778151243 | 5.56° C | 88% | 1017.6 hPa | 0 mm | - | - | - |
| 1778148363 | 5.56° C | 88% | 1017.8 hPa | 0 mm | - | - | - |
| 1778146337 | 6.11° C | 87% | 1018 hPa | 0 mm | - | - | - |
| 1778145303 | 6.11° C | 86% | 1018 hPa | 0 mm | - | - | - |
| 1778142018 | 6.11° C | 90% | 1018 hPa | 0 mm | - | - | - |
| 1778141523 | 6.11° C | 90% | 1018 hPa | 0 mm | - | - | - |
| 1778140083 | 6.11° C | 91% | 1018 hPa | 0 mm | - | - | - |
| 1778137743 | 6.67° C | 87% | 1018.2 hPa | 0 mm | - | - | - |
| 1778135943 | 7.22° C | 87% | 1018.5 hPa | 0 mm | - | - | - |
| 1778135043 | 6.67° C | 88% | 1018.5 hPa | 0 mm | - | - | - |
* Rain latest hour (hover to see other rain measurements)
** Current wind speed in m/s (hover to see current wind gust speed)